Time;durP1;ratioP1;P1;durP2;ratioP2;P2;SDS_P1;SDS_P2;PMS_P1;PMS_P2;Temp;Humidity;BMP_temperature;BMP_pressure;BME280_temperature;BME280_humidity;BME280_pressure;Samples;Min_cycle;Max_cycle;Signal;HPM_P1;HPM_P2
2023/02/28 00:00:49;;;;;;;6.03;2.65;;;5.50;92.50;;;;;;5083255;28;20021;-76
2023/02/28 00:03:15;;;;;;;6.20;2.22;;;5.50;92.30;;;;;;5085360;28;20036;-76
2023/02/28 00:05:41;;;;;;;8.38;2.97;;;5.60;92.50;;;;;;5083371;28;20024;-79
2023/02/28 00:08:07;;;;;;;9.75;3.53;;;5.60;92.00;;;;;;5088668;28;20445;-77
2023/02/28 00:10:33;;;;;;;9.25;3.55;;;5.60;91.60;;;;;;5077727;28;20512;-76
2023/02/28 00:13:06;;;;;;;8.32;3.70;;;5.60;91.10;;;;;;5088487;28;20024;-77
2023/02/28 00:15:33;;;;;;;5.82;3.03;;;5.60;90.80;;;;;;5094052;28;20367;-78
2023/02/28 00:17:59;;;;;;;9.27;3.75;;;5.60;90.20;;;;;;5092736;28;20027;-76
2023/02/28 00:20:25;;;;;;;7.38;4.10;;;5.70;90.00;;;;;;5080682;28;20021;-78
2023/02/28 00:22:52;;;;;;;6.47;3.28;;;5.70;87.90;;;;;;5089491;28;20132;-77
2023/02/28 00:25:21;;;;;;;7.80;2.67;;;5.70;88.60;;;;;;5098715;28;20049;-76
2023/02/28 00:27:47;;;;;;;5.40;2.97;;;5.70;90.70;;;;;;5097372;28;20028;-78
2023/02/28 00:30:17;;;;;;;6.45;3.30;;;5.70;91.50;;;;;;5083174;28;20029;-77
2023/02/28 00:32:43;;;;;;;7.80;3.90;;;5.70;91.00;;;;;;5081199;28;20021;-78
2023/02/28 00:35:10;;;;;;;5.72;3.22;;;5.70;90.30;;;;;;5099558;28;20024;-78
2023/02/28 00:37:36;;;;;;;6.82;3.20;;;5.70;89.20;;;;;;5097869;28;20028;-78
2023/02/28 00:40:04;;;;;;;7.38;3.55;;;5.60;90.00;;;;;;5088658;28;20059;-77
2023/02/28 00:42:30;;;;;;;7.10;3.70;;;5.70;90.30;;;;;;5081125;28;20021;-76
2023/02/28 00:44:55;;;;;;;5.97;3.75;;;5.60;88.70;;;;;;5098929;28;20024;-77
2023/02/28 00:47:21;;;;;;;7.30;3.33;;;5.70;87.70;;;;;;5092720;28;20021;-78
2023/02/28 00:49:51;;;;;;;8.88;3.85;;;5.70;87.10;;;;;;5107139;28;20078;-78
2023/02/28 00:52:16;;;;;;;7.95;3.60;;;5.70;89.40;;;;;;5110599;28;20012;-77
2023/02/28 00:54:42;;;;;;;12.48;4.47;;;5.70;88.10;;;;;;5103212;28;20027;-77
2023/02/28 00:57:09;;;;;;;10.32;4.18;;;5.70;87.20;;;;;;5092416;28;20450;-78
2023/02/28 00:59:35;;;;;;;8.55;4.03;;;5.70;86.50;;;;;;5099310;28;20020;-77
2023/02/28 01:02:00;;;;;;;6.25;3.50;;;5.70;86.00;;;;;;5095269;28;20016;-77
2023/02/28 01:04:26;;;;;;;6.47;2.97;;;5.70;85.30;;;;;;5088475;28;20093;-77
2023/02/28 01:06:52;;;;;;;5.90;3.58;;;5.80;85.50;;;;;;5100774;28;20044;-76
2023/02/28 01:09:17;;;;;;;7.13;2.90;;;5.80;85.00;;;;;;5089275;28;20490;-77
2023/02/28 01:11:44;;;;;;;8.40;3.75;;;5.80;85.80;;;;;;5086774;28;20027;-78
2023/02/28 01:14:14;;;;;;;9.00;3.72;;;5.80;85.00;;;;;;5091082;28;20020;-77
2023/02/28 01:16:41;;;;;;;6.25;3.53;;;5.80;84.10;;;;;;5088374;28;20021;-78
2023/02/28 01:19:06;;;;;;;6.78;2.55;;;5.80;84.70;;;;;;5090785;28;20429;-78
2023/02/28 01:21:32;;;;;;;10.43;3.70;;;5.80;85.60;;;;;;5105490;28;20024;-77
2023/02/28 01:23:58;;;;;;;5.95;2.78;;;5.80;85.60;;;;;;5100718;28;20068;-77
2023/02/28 01:26:24;;;;;;;4.68;2.05;;;5.90;86.10;;;;;;5096474;28;20050;-77
2023/02/28 01:28:51;;;;;;;6.90;3.53;;;5.80;90.30;;;;;;5101134;28;20070;-78
2023/02/28 01:31:19;;;;;;;7.95;3.50;;;5.70;90.70;;;;;;5091114;28;20486;-79
2023/02/28 01:33:45;;;;;;;6.07;2.83;;;5.70;90.90;;;;;;5099379;28;20013;-78
2023/02/28 01:36:14;;;;;;;7.93;3.70;;;5.70;90.90;;;;;;5088102;28;20115;-77
2023/02/28 01:38:44;;;;;;;5.03;2.40;;;5.70;90.90;;;;;;5081438;28;20037;-78
2023/02/28 01:41:38;;;;;;;6.38;2.78;;;5.70;91.10;;;;;;5099002;28;20475;-78
2023/02/28 01:44:05;;;;;;;11.48;4.80;;;5.70;90.60;;;;;;5076538;28;20048;-77
2023/02/28 01:46:34;;;;;;;7.97;3.10;;;5.70;89.10;;;;;;5102352;28;20383;-77
2023/02/28 01:49:03;;;;;;;8.20;3.88;;;5.70;88.70;;;;;;5103909;28;20353;-78
2023/02/28 01:51:35;;;;;;;9.57;4.03;;;5.70;88.00;;;;;;5090767;28;20024;-78
2023/02/28 01:54:13;;;;;;;10.15;4.40;;;5.60;87.20;;;;;;5105529;28;20076;-78
2023/02/28 01:56:43;;;;;;;5.38;2.78;;;5.70;87.30;;;;;;5095864;28;20024;-78
2023/02/28 01:59:09;;;;;;;10.82;4.45;;;5.70;87.60;;;;;;5085748;28;20071;-77
2023/02/28 02:01:38;;;;;;;7.88;4.22;;;5.70;86.90;;;;;;5083320;28;20055;-78
2023/02/28 02:04:04;;;;;;;7.97;4.50;;;5.70;85.80;;;;;;5097022;28;20032;-78
2023/02/28 02:06:41;;;;;;;8.32;4.15;;;5.70;85.30;;;;;;5091240;28;20048;-77
2023/02/28 02:09:07;;;;;;;6.97;4.25;;;5.70;85.00;;;;;;5086508;28;20028;-78
2023/02/28 02:11:34;;;;;;;9.70;4.88;;;5.70;84.50;;;;;;5098629;28;20020;-79
2023/02/28 02:14:15;;;;;;;9.68;4.55;;;5.70;84.50;;;;;;5088025;28;20024;-75
2023/02/28 02:16:57;;;;;;;7.45;4.28;;;5.70;84.30;;;;;;5090383;28;20033;-76
2023/02/28 02:19:23;;;;;;;12.02;5.40;;;5.70;83.90;;;;;;5082431;28;20054;-78
2023/02/28 02:22:29;;;;;;;10.02;4.72;;;5.70;83.90;;;;;;5096922;28;20035;-78
2023/02/28 02:25:20;;;;;;;9.60;4.40;;;5.70;84.00;;;;;;5100154;28;20046;-78
2023/02/28 02:28:19;;;;;;;12.27;4.75;;;5.70;84.00;;;;;;5085184;28;20493;-77
2023/02/28 02:31:23;;;;;;;11.30;4.97;;;5.70;83.70;;;;;;5087073;28;20024;-78
2023/02/28 02:34:27;;;;;;;9.73;4.65;;;5.70;83.80;;;;;;5088568;28;20032;-79
2023/02/28 02:36:55;;;;;;;8.40;4.20;;;5.70;83.30;;;;;;5081030;28;20045;-77
2023/02/28 02:40:08;;;;;;;7.38;4.05;;;5.60;82.80;;;;;;5091663;28;20066;-78
2023/02/28 02:42:44;;;;;;;10.85;4.55;;;5.60;82.90;;;;;;5061584;28;20082;-75
2023/02/28 02:45:19;;;;;;;8.63;4.40;;;5.50;82.50;;;;;;5071619;28;20529;-80
2023/02/28 02:47:45;;;;;;;6.93;4.57;;;5.50;82.00;;;;;;5082327;28;20085;-77
2023/02/28 02:50:20;;;;;;;9.27;4.88;;;5.50;81.90;;;;;;5072975;28;20479;-77
2023/02/28 02:52:53;;;;;;;12.05;4.70;;;5.40;81.60;;;;;;5078556;28;20070;-78
2023/02/28 02:55:22;;;;;;;9.02;4.07;;;5.40;81.20;;;;;;5071709;28;20390;-76
2023/02/28 02:57:55;;;;;;;9.85;4.43;;;5.40;81.70;;;;;;5078439;28;20077;-79
2023/02/28 03:00:30;;;;;;;9.15;4.05;;;5.40;80.50;;;;;;5088192;28;20055;-77
2023/02/28 03:02:56;;;;;;;9.18;4.40;;;5.40;80.50;;;;;;5073546;28;20024;-78
2023/02/28 03:05:44;;;;;;;8.75;4.10;;;5.40;79.90;;;;;;5086987;28;20027;-77
2023/02/28 03:08:11;;;;;;;8.85;4.20;;;5.40;79.30;;;;;;5082134;28;20049;-78
2023/02/28 03:10:40;;;;;;;8.35;3.85;;;5.40;79.50;;;;;;5071427;28;20021;-77
2023/02/28 03:13:25;;;;;;;8.88;3.85;;;5.40;79.50;;;;;;5078111;28;20016;-77
2023/02/28 03:16:28;;;;;;;10.02;5.15;;;5.40;79.70;;;;;;5073622;28;20073;-78
2023/02/28 03:19:10;;;;;;;10.88;4.97;;;5.40;79.30;;;;;;5082563;28;20024;-77
2023/02/28 03:21:57;;;;;;;9.27;4.07;;;5.40;79.10;;;;;;5069822;28;20072;-77
2023/02/28 03:24:23;;;;;;;8.20;4.68;;;5.30;79.30;;;;;;5075267;28;20467;-78
2023/02/28 03:27:02;;;;;;;9.23;4.70;;;5.30;79.60;;;;;;5070573;28;20535;-78
2023/02/28 03:29:32;;;;;;;8.18;4.00;;;5.30;78.70;;;;;;5075052;28;20074;-78
2023/02/28 03:32:05;;;;;;;9.30;4.43;;;5.30;78.50;;;;;;5086260;28;20499;-78
2023/02/28 03:34:38;;;;;;;9.50;4.07;;;5.30;78.00;;;;;;5082090;28;20024;-78
2023/02/28 03:37:11;;;;;;;10.20;4.50;;;5.30;77.70;;;;;;5070346;28;20075;-79
2023/02/28 03:39:47;;;;;;;9.73;4.82;;;5.30;77.60;;;;;;5082051;28;20035;-79
2023/02/28 03:42:21;;;;;;;9.68;5.20;;;5.20;76.90;;;;;;5070274;28;20052;-78
2023/02/28 03:44:52;;;;;;;8.75;3.92;;;5.30;77.30;;;;;;5072900;28;20041;-78
2023/02/28 03:47:26;;;;;;;5.30;2.78;;;5.30;77.10;;;;;;5071646;28;20479;-79
2023/02/28 03:50:09;;;;;;;8.25;4.13;;;5.20;74.80;;;;;;5083406;28;20061;-79
2023/02/28 03:52:40;;;;;;;9.85;4.15;;;5.20;75.70;;;;;;5070502;28;20031;-76
2023/02/28 03:55:10;;;;;;;6.68;3.38;;;5.30;76.40;;;;;;5083440;28;20023;-79
2023/02/28 03:57:42;;;;;;;;;;;5.40;76.50;;;;;;5089792;28;20073;-76
2023/02/28 04:00:28;;;;;;;3.97;2.00;;;5.50;81.20;;;;;;5082471;28;19904;-77
2023/02/28 04:02:55;;;;;;;2.72;1.42;;;5.40;75.90;;;;;;5077715;28;20016;-77
2023/02/28 04:05:23;;;;;;;6.07;2.28;;;5.40;75.80;;;;;;5084217;28;20040;-76
2023/02/28 04:07:49;;;;;;;4.80;2.38;;;5.40;73.50;;;;;;5089596;28;20114;-76
2023/02/28 04:10:15;;;;;;;4.18;1.90;;;5.40;73.70;;;;;;5080602;28;20660;-78
2023/02/28 04:12:41;;;;;;;5.50;2.67;;;5.40;74.60;;;;;;5085873;28;20024;-78
2023/02/28 04:15:07;;;;;;;5.40;2.50;;;5.40;74.10;;;;;;5083055;28;20081;-77
2023/02/28 04:17:33;;;;;;;4.13;2.00;;;5.40;73.60;;;;;;5084205;28;20409;-76
2023/02/28 04:19:59;;;;;;;6.28;2.15;;;5.40;72.10;;;;;;5082891;28;20032;-77
2023/02/28 04:22:26;;;;;;;5.15;2.17;;;5.40;71.80;;;;;;5081396;28;20063;-78
2023/02/28 04:24:53;;;;;;;5.07;1.88;;;5.40;72.30;;;;;;5075049;28;20533;-76
2023/02/28 04:27:19;;;;;;;4.50;2.40;;;5.50;72.00;;;;;;5074493;28;20021;-77
2023/02/28 04:29:45;;;;;;;4.93;1.80;;;5.50;72.80;;;;;;5074231;28;20021;-77
2023/02/28 04:32:11;;;;;;;4.63;1.92;;;5.50;73.30;;;;;;5084171;28;20702;-76
2023/02/28 04:34:37;;;;;;;6.88;2.85;;;5.50;73.30;;;;;;5073864;28;20028;-76
2023/02/28 04:37:03;;;;;;;7.85;2.47;;;5.50;72.60;;;;;;5080290;28;20482;-76
2023/02/28 04:39:29;;;;;;;5.47;2.78;;;5.50;72.60;;;;;;5072774;28;20056;-78
2023/02/28 04:41:55;;;;;;;5.68;2.88;;;5.50;73.10;;;;;;5084639;28;20020;-78
2023/02/28 04:44:21;;;;;;;5.68;2.88;;;5.50;73.70;;;;;;5071521;28;20316;-77
2023/02/28 04:46:48;;;;;;;6.50;2.63;;;5.40;74.10;;;;;;5083666;28;20099;-77
2023/02/28 04:49:14;;;;;;;5.85;3.00;;;5.40;74.60;;;;;;5085060;28;20050;-78
2023/02/28 04:51:40;;;;;;;4.97;2.42;;;5.40;74.90;;;;;;5081679;28;20049;-77
2023/02/28 04:54:06;;;;;;;6.05;3.30;;;5.30;75.20;;;;;;5089754;28;20106;-77
2023/02/28 04:56:31;;;;;;;5.53;2.70;;;5.30;75.80;;;;;;5084429;28;20052;-77
2023/02/28 04:58:57;;;;;;;7.78;2.30;;;5.30;76.10;;;;;;5087005;28;20028;-78
2023/02/28 05:01:29;;;;;;;4.40;2.67;;;5.30;76.60;;;;;;5084211;28;20386;-78
2023/02/28 05:03:57;;;;;;;4.55;2.40;;;5.30;76.70;;;;;;5074765;28;20033;-79
2023/02/28 05:06:24;;;;;;;14.63;3.40;;;5.30;76.60;;;;;;5088970;28;20040;-77
2023/02/28 05:08:51;;;;;;;5.95;3.10;;;5.20;76.90;;;;;;5082705;28;20027;-77
2023/02/28 05:11:20;;;;;;;4.38;2.22;;;5.20;77.20;;;;;;5091186;28;20389;-77
2023/02/28 05:13:46;;;;;;;4.75;2.58;;;5.10;77.20;;;;;;5092255;28;20036;-77
2023/02/28 05:16:13;;;;;;;6.45;2.50;;;5.20;77.30;;;;;;5092090;28;20028;-76
2023/02/28 05:18:39;;;;;;;5.22;1.95;;;5.20;77.60;;;;;;5084324;28;20079;-77
2023/02/28 05:21:04;;;;;;;6.68;2.78;;;5.10;77.40;;;;;;5093477;28;20028;-78
2023/02/28 05:23:30;;;;;;;7.97;2.47;;;5.10;77.90;;;;;;5087103;28;20055;-76
2023/02/28 05:25:56;;;;;;;6.15;2.38;;;5.10;77.90;;;;;;5093534;28;20386;-77
2023/02/28 05:28:22;;;;;;;6.53;2.60;;;5.10;77.80;;;;;;5088753;28;20028;-77
2023/02/28 05:30:47;;;;;;;4.72;2.20;;;5.10;77.70;;;;;;5073950;28;20032;-77
2023/02/28 05:33:13;;;;;;;4.20;2.20;;;5.10;77.80;;;;;;5083847;28;20549;-77
2023/02/28 05:35:40;;;;;;;4.93;2.00;;;5.10;78.10;;;;;;5085916;28;20031;-77
2023/02/28 05:38:07;;;;;;;7.03;2.35;;;5.00;78.90;;;;;;5083509;28;20662;-76
2023/02/28 05:40:32;;;;;;;5.95;2.92;;;5.00;78.50;;;;;;5087112;28;20059;-76
2023/02/28 05:42:58;;;;;;;4.90;2.22;;;5.00;78.60;;;;;;5085019;28;20056;-78
2023/02/28 05:45:23;;;;;;;5.13;1.90;;;5.00;78.60;;;;;;5079040;28;20044;-77
2023/02/28 05:47:53;;;;;;;6.20;3.03;;;5.00;79.80;;;;;;5073909;28;20020;-77
2023/02/28 05:50:19;;;;;;;4.05;2.22;;;5.00;79.60;;;;;;5081070;28;20025;-77
2023/02/28 05:52:48;;;;;;;8.07;2.88;;;5.00;80.20;;;;;;5072540;28;20467;-77
2023/02/28 05:55:14;;;;;;;4.97;2.53;;;5.00;79.80;;;;;;5072819;28;20024;-77
2023/02/28 05:57:39;;;;;;;5.30;2.30;;;5.00;79.50;;;;;;5073091;28;20053;-78
2023/02/28 06:00:06;;;;;;;5.10;2.40;;;5.00;79.60;;;;;;5074372;28;20025;-77
2023/02/28 06:02:31;;;;;;;5.05;2.40;;;5.00;79.50;;;;;;5076094;28;20458;-76
2023/02/28 06:04:57;;;;;;;5.43;2.92;;;5.00;79.70;;;;;;5079243;28;20047;-77
2023/02/28 06:07:23;;;;;;;4.32;2.63;;;5.00;79.90;;;;;;5090850;28;20044;-77
2023/02/28 06:09:48;;;;;;;7.75;2.78;;;5.00;80.30;;;;;;5085217;28;20028;-77
2023/02/28 06:12:14;;;;;;;5.78;2.58;;;5.00;80.00;;;;;;5070358;28;20376;-76
2023/02/28 06:14:40;;;;;;;7.95;2.60;;;4.90;80.00;;;;;;5080599;28;20087;-77
2023/02/28 06:17:06;;;;;;;7.55;2.90;;;5.00;80.10;;;;;;5074903;28;20021;-77
2023/02/28 06:19:32;;;;;;;5.25;2.53;;;5.00;81.50;;;;;;5085192;28;20020;-76
2023/02/28 06:21:59;;;;;;;4.30;2.10;;;5.00;80.40;;;;;;5073065;28;20024;-76
2023/02/28 06:24:27;;;;;;;5.47;2.63;;;4.90;79.70;;;;;;5078273;28;20032;-77
2023/02/28 06:26:53;;;;;;;4.75;2.40;;;4.90;79.70;;;;;;5079980;28;20141;-78
2023/02/28 06:29:19;;;;;;;5.38;2.40;;;4.80;80.50;;;;;;5064338;28;20103;-77
2023/02/28 06:31:46;;;;;;;5.28;2.40;;;4.90;79.80;;;;;;5077759;28;20108;-80
2023/02/28 06:34:12;;;;;;;4.28;2.72;;;4.90;79.70;;;;;;5090679;28;20020;-79
2023/02/28 06:36:41;;;;;;;7.60;2.90;;;4.90;79.70;;;;;;5083835;28;20374;-77
2023/02/28 06:39:07;;;;;;;4.80;2.20;;;4.90;80.80;;;;;;5084794;28;20048;-78
2023/02/28 06:41:40;;;;;;;5.40;2.13;;;5.00;79.60;;;;;;5084116;28;20410;-78
2023/02/28 06:44:12;;;;;;;4.97;2.05;;;5.10;78.30;;;;;;5082562;28;20498;-77
2023/02/28 06:46:40;;;;;;;5.03;2.08;;;5.20;78.00;;;;;;5079345;28;20027;-78
2023/02/28 06:49:08;;;;;;;5.63;2.58;;;5.20;76.70;;;;;;5075344;28;20024;-78
2023/02/28 06:51:35;;;;;;;6.63;2.50;;;5.20;75.90;;;;;;5078723;28;20017;-78
2023/02/28 06:54:01;;;;;;;6.28;2.33;;;5.20;75.40;;;;;;5086182;28;20016;-79
2023/02/28 06:56:28;;;;;;;4.90;2.20;;;5.20;74.20;;;;;;5079147;28;20028;-78
2023/02/28 06:58:54;;;;;;;6.50;2.65;;;5.20;72.80;;;;;;5071581;28;20052;-79
2023/02/28 07:01:22;;;;;;;5.93;2.00;;;5.10;73.20;;;;;;5082724;28;20537;-79
2023/02/28 07:03:51;;;;;;;5.35;2.42;;;5.10;72.90;;;;;;5090039;28;20130;-78
2023/02/28 07:06:18;;;;;;;4.45;2.13;;;5.10;72.40;;;;;;5037683;28;1188183;-79
2023/02/28 07:08:44;;;;;;;5.35;2.22;;;5.20;72.50;;;;;;5070138;28;20130;-78
2023/02/28 07:11:10;;;;;;;5.57;2.58;;;5.20;71.70;;;;;;5073961;28;20041;-78
2023/02/28 07:13:36;;;;;;;7.93;2.40;;;5.20;72.00;;;;;;5081458;28;20482;-77
2023/02/28 07:16:05;;;;;;;5.63;2.83;;;5.20;71.20;;;;;;5084105;28;20107;-78
2023/02/28 07:18:31;;;;;;;5.78;3.35;;;5.20;71.50;;;;;;5088094;28;20034;-79
2023/02/28 07:20:57;;;;;;;8.00;2.90;;;5.20;70.90;;;;;;5081917;28;20016;-79
2023/02/28 07:23:23;;;;;;;5.30;2.60;;;5.20;71.40;;;;;;5080406;28;20045;-80
2023/02/28 07:25:50;;;;;;;15.48;3.10;;;5.20;71.20;;;;;;5087610;28;20423;-78
2023/02/28 07:28:16;;;;;;;6.32;2.55;;;5.20;70.80;;;;;;5089849;28;20024;-78
2023/02/28 07:30:42;;;;;;;5.93;3.08;;;5.30;70.20;;;;;;5074329;28;20024;-78
2023/02/28 07:33:10;;;;;;;6.43;2.42;;;5.30;69.10;;;;;;5084764;28;20024;-80
2023/02/28 07:35:35;;;;;;;7.43;2.97;;;5.40;68.70;;;;;;5079828;28;20111;-78
2023/02/28 07:38:02;;;;;;;5.13;2.58;;;5.40;68.10;;;;;;5080264;28;20110;-78
2023/02/28 07:40:29;;;;;;;5.95;2.58;;;5.40;68.10;;;;;;5085092;28;20082;-78
2023/02/28 07:42:55;;;;;;;6.50;3.17;;;5.40;67.00;;;;;;5083036;28;20090;-78
2023/02/28 07:45:21;;;;;;;8.52;3.50;;;5.30;67.80;;;;;;5081785;28;20044;-77
2023/02/28 07:47:46;;;;;;;6.82;3.10;;;5.30;68.10;;;;;;5080222;28;20028;-77
2023/02/28 07:50:14;;;;;;;14.32;3.13;;;5.40;67.60;;;;;;5081348;28;20017;-77
2023/02/28 07:52:41;;;;;;;5.88;2.60;;;5.50;67.10;;;;;;5071234;28;20099;-78
2023/02/28 07:55:08;;;;;;;6.07;3.10;;;5.60;67.10;;;;;;5079185;28;20028;-76
2023/02/28 07:57:34;;;;;;;6.25;2.95;;;5.70;66.00;;;;;;5079427;28;20108;-78
2023/02/28 08:00:01;;;;;;;6.90;3.00;;;5.90;66.30;;;;;;5074878;28;20064;-77
2023/02/28 08:02:27;;;;;;;5.40;2.75;;;6.10;66.80;;;;;;5074101;28;20020;-78
2023/02/28 08:04:53;;;;;;;6.70;2.65;;;6.30;65.40;;;;;;5072848;28;20095;-78
2023/02/28 08:07:19;;;;;;;6.07;2.90;;;6.40;63.00;;;;;;5083162;28;20112;-78
2023/02/28 08:09:45;;;;;;;4.50;2.38;;;6.50;62.50;;;;;;5078569;28;21077;-78
2023/02/28 08:12:12;;;;;;;5.85;2.35;;;6.60;61.20;;;;;;5072240;28;20112;-77
2023/02/28 08:14:39;;;;;;;4.57;2.28;;;6.70;61.90;;;;;;5072537;28;20036;-78
2023/02/28 08:17:05;;;;;;;4.53;2.15;;;6.80;60.30;;;;;;5070410;28;20057;-76
2023/02/28 08:19:32;;;;;;;7.55;2.35;;;6.90;59.80;;;;;;5072172;28;20024;-78
2023/02/28 08:21:58;;;;;;;5.47;2.90;;;7.00;57.90;;;;;;5070295;28;20041;-78
2023/02/28 08:24:24;;;;;;;5.78;2.30;;;7.10;58.40;;;;;;5078802;28;20538;-77
2023/02/28 08:26:50;;;;;;;4.90;2.80;;;7.20;57.20;;;;;;5081790;28;20052;-77
2023/02/28 08:29:16;;;;;;;6.20;3.20;;;7.40;57.70;;;;;;5078669;28;20033;-78
2023/02/28 08:31:42;;;;;;;12.65;2.60;;;7.50;55.50;;;;;;5086615;28;20024;-76
2023/02/28 08:34:10;;;;;;;6.72;2.53;;;7.60;57.70;;;;;;5076316;28;20032;-77
2023/02/28 08:36:36;;;;;;;4.38;2.13;;;7.60;52.50;;;;;;5088657;28;20040;-76
2023/02/28 08:39:03;;;;;;;4.57;1.70;;;7.50;51.40;;;;;;5077485;28;20062;-75
2023/02/28 08:41:29;;;;;;;3.35;1.90;;;7.60;52.70;;;;;;5086117;28;20107;-78
2023/02/28 08:43:54;;;;;;;5.53;2.22;;;7.60;51.20;;;;;;5076960;28;20111;-78
2023/02/28 08:46:20;;;;;;;4.35;1.90;;;7.50;50.30;;;;;;5088464;28;20451;-77
2023/02/28 08:48:46;;;;;;;4.13;2.05;;;7.50;50.90;;;;;;5073503;28;20111;-78
2023/02/28 08:51:21;;;;;;;4.40;2.05;;;7.60;50.10;;;;;;5086011;28;20099;-77
2023/02/28 08:53:49;;;;;;;5.63;2.30;;;7.80;51.30;;;;;;5089171;28;20027;-79
2023/02/28 08:56:18;;;;;;;7.30;2.38;;;7.80;48.60;;;;;;5086361;28;20482;-77
2023/02/28 08:58:44;;;;;;;3.13;1.80;;;7.90;49.40;;;;;;5088794;28;20115;-79
2023/02/28 09:01:13;;;;;;;4.53;1.70;;;7.80;47.20;;;;;;5078313;28;20060;-77
2023/02/28 09:03:41;;;;;;;3.00;1.60;;;7.70;47.50;;;;;;5075354;28;20123;-77
2023/02/28 09:06:08;;;;;;;4.53;2.00;;;7.70;48.50;;;;;;5080660;28;20071;-78
2023/02/28 09:08:33;;;;;;;6.38;1.83;;;7.70;48.40;;;;;;5081897;28;20027;-77
2023/02/28 09:10:59;;;;;;;7.20;2.28;;;7.80;47.60;;;;;;5084708;28;20027;-78
2023/02/28 09:13:26;;;;;;;3.55;1.60;;;7.80;48.20;;;;;;5090459;28;20032;-75
2023/02/28 09:15:53;;;;;;;5.05;1.80;;;8.00;47.40;;;;;;5087761;28;20091;-78
2023/02/28 09:18:20;;;;;;;4.25;2.10;;;8.10;44.80;;;;;;5074627;28;20029;-77
2023/02/28 09:20:45;;;;;;;5.90;2.33;;;8.10;45.60;;;;;;5084188;28;20020;-77
2023/02/28 09:23:12;;;;;;;4.25;1.90;;;8.20;46.70;;;;;;5085251;28;20149;-78
2023/02/28 09:25:52;;;;;;;3.30;1.80;;;8.30;47.80;;;;;;5085881;28;20576;-78
2023/02/28 09:28:18;;;;;;;3.55;2.00;;;8.50;47.70;;;;;;5081809;28;20035;-77
2023/02/28 09:30:46;;;;;;;3.63;1.60;;;8.70;47.30;;;;;;5082228;28;20021;-78
2023/02/28 09:33:13;;;;;;;2.25;1.33;;;8.80;45.00;;;;;;5081783;28;20020;-78
2023/02/28 09:35:39;;;;;;;2.95;1.45;;;8.80;43.90;;;;;;5081611;28;20016;-77
2023/02/28 09:38:07;;;;;;;3.28;1.83;;;8.70;47.10;;;;;;5079726;28;20520;-77
2023/02/28 09:41:11;;;;;;;4.47;1.50;;;8.70;44.90;;;;;;5075529;28;20110;-79
2023/02/28 09:43:43;;;;;;;2.35;1.40;;;8.50;43.90;;;;;;5026896;28;20826;-78
2023/02/28 09:46:36;;;;;;;6.45;1.58;;;8.50;43.40;;;;;;5073665;28;20051;-79
2023/02/28 09:49:07;;;;;;;3.88;1.40;;;8.70;53.40;;;;;;5070057;28;20025;-74
2023/02/28 09:51:43;;;;;;;4.60;2.15;;;8.80;45.50;;;;;;5074891;28;20028;-79
2023/02/28 09:54:24;;;;;;;3.22;1.75;;;9.10;48.10;;;;;;5075510;28;20085;-77
2023/02/28 09:56:53;;;;;;;3.85;1.60;;;9.20;45.90;;;;;;5077420;28;20032;-78
2023/02/28 09:59:44;;;;;;;4.68;1.63;;;9.30;43.70;;;;;;5073598;28;20561;-77
2023/02/28 10:02:19;;;;;;;3.35;1.83;;;9.40;52.00;;;;;;5071441;28;20029;-78
2023/02/28 10:04:57;;;;;;;3.30;1.58;;;9.50;50.70;;;;;;5073221;28;20055;-77
2023/02/28 10:07:25;;;;;;;3.30;1.70;;;9.70;62.30;;;;;;5078077;28;20790;-78
2023/02/28 10:09:56;;;;;;;3.35;1.58;;;10.00;65.60;;;;;;5073675;28;20028;-75
2023/02/28 10:12:22;;;;;;;4.85;1.50;;;10.10;58.90;;;;;;5070879;28;20028;-78
2023/02/28 10:14:51;;;;;;;3.30;1.70;;;10.30;55.10;;;;;;5082655;28;20019;-76
2023/02/28 10:17:21;;;;;;;5.27;1.40;;;10.50;54.10;;;;;;5079458;28;20020;-78
2023/02/28 10:19:53;;;;;;;3.05;1.70;;;10.50;53.70;;;;;;5073275;28;20114;-74
2023/02/28 10:22:24;;;;;;;3.28;1.35;;;10.40;46.00;;;;;;5074660;28;20431;-75
2023/02/28 10:24:51;;;;;;;4.88;1.60;;;10.10;58.10;;;;;;5073056;28;20163;-75
2023/02/28 10:27:27;;;;;;;4.05;1.40;;;10.10;50.70;;;;;;5072226;28;20089;-74
2023/02/28 10:29:56;;;;;;;3.63;1.08;;;10.20;50.20;;;;;;5074038;28;20119;-74
2023/02/28 10:32:37;;;;;;;2.17;1.27;;;10.20;55.40;;;;;;5072431;28;20031;-75
2023/02/28 10:35:09;;;;;;;3.00;1.15;;;10.30;52.40;;;;;;5073837;28;20041;-74
2023/02/28 10:37:38;;;;;;;3.03;1.58;;;10.40;49.00;;;;;;5076256;28;20024;-74
2023/02/28 10:40:05;;;;;;;2.83;1.30;;;10.40;50.00;;;;;;5069960;28;20036;-76
2023/02/28 10:42:32;;;;;;;3.25;1.63;;;10.40;46.40;;;;;;5075259;28;20104;-74
2023/02/28 10:45:13;;;;;;;2.83;1.50;;;10.30;46.10;;;;;;5079317;28;20093;-74
2023/02/28 10:48:01;;;;;;;3.05;1.30;;;10.40;46.50;;;;;;5073246;28;20059;-74
2023/02/28 10:50:31;;;;;;;2.20;1.10;;;10.50;49.30;;;;;;5072701;28;20096;-76
2023/02/28 10:53:07;;;;;;;;;;;10.70;64.80;;;;;;5071991;28;20059;-75
2023/02/28 10:55:32;;;;;;;2.70;1.70;;;10.80;56.40;;;;;;5072907;28;20407;-77
2023/02/28 10:57:58;;;;;;;4.80;1.90;;;10.90;48.90;;;;;;5073432;28;20746;-73
2023/02/28 11:00:25;;;;;;;5.53;2.03;;;10.80;48.50;;;;;;5073987;28;20020;-74
2023/02/28 11:02:51;;;;;;;3.75;1.70;;;10.80;45.30;;;;;;5074582;28;20066;-73
2023/02/28 11:05:35;;;;;;;4.28;1.63;;;10.90;47.10;;;;;;5069880;28;20169;-73
2023/02/28 11:08:13;;;;;;;3.95;1.65;;;11.10;53.30;;;;;;5070637;28;20040;-75
2023/02/28 11:10:44;;;;;;;3.35;1.73;;;11.10;54.70;;;;;;5071784;28;20024;-75
2023/02/28 11:13:16;;;;;;;;;;;11.20;47.30;;;;;;5073680;28;20027;-74
2023/02/28 11:15:49;;;;;;;4.30;1.98;;;11.30;43.90;;;;;;5072557;28;19919;-75
2023/02/28 11:18:48;;;;;;;5.10;1.67;;;11.30;41.30;;;;;;5072135;28;20087;-75
2023/02/28 11:21:23;;;;;;;3.22;1.60;;;11.40;46.10;;;;;;5072239;28;20031;-74
2023/02/28 11:23:52;;;;;;;3.10;1.60;;;11.30;54.90;;;;;;5071389;28;20075;-75
2023/02/28 11:26:37;;;;;;;3.57;1.50;;;11.10;52.80;;;;;;5076223;28;20033;-73
2023/02/28 11:29:19;;;;;;;4.15;1.50;;;11.20;47.40;;;;;;5069522;28;20028;-75
2023/02/28 11:32:11;;;;;;;2.97;1.60;;;11.20;46.50;;;;;;5075769;28;20016;-75
2023/02/28 11:34:38;;;;;;;3.33;1.60;;;11.10;41.00;;;;;;5070627;28;20025;-76
2023/02/28 11:37:17;;;;;;;3.22;1.35;;;11.20;52.30;;;;;;5069682;28;20386;-74
2023/02/28 11:39:44;;;;;;;3.20;1.45;;;11.50;66.20;;;;;;5068538;28;20541;-74
2023/02/28 11:42:16;;;;;;;3.17;1.60;;;11.60;47.00;;;;;;5078292;28;20486;-75
2023/02/28 11:44:42;;;;;;;3.83;1.77;;;11.80;49.20;;;;;;5071075;28;20035;-75
2023/02/28 11:47:29;;;;;;;4.00;1.75;;;12.10;48.10;;;;;;5070166;28;20029;-74
2023/02/28 11:50:17;;;;;;;3.75;1.80;;;12.10;43.80;;;;;;5073844;28;20048;-75
2023/02/28 11:53:01;;;;;;;2.92;1.20;;;12.30;68.80;;;;;;5071172;28;20091;-75
2023/02/28 11:55:36;;;;;;;4.55;1.67;;;12.50;74.30;;;;;;5072137;28;20032;-75
2023/02/28 11:58:29;;;;;;;2.75;1.42;;;12.50;60.70;;;;;;5069867;28;20078;-74
2023/02/28 12:01:24;;;;;;;3.58;1.73;;;12.40;48.30;;;;;;5068947;28;20027;-76
2023/02/28 12:04:05;;;;;;;4.07;2.03;;;12.20;46.40;;;;;;5074009;28;20360;-77
2023/02/28 12:07:09;;;;;;;3.20;1.42;;;11.90;43.90;;;;;;5071350;28;20049;-75
2023/02/28 12:09:36;;;;;;;4.97;1.73;;;12.10;47.30;;;;;;5072235;28;20391;-75
2023/02/28 12:12:26;;;;;;;4.78;1.45;;;12.10;45.20;;;;;;5070684;28;20102;-73
2023/02/28 12:15:10;;;;;;;3.72;2.03;;;12.00;50.40;;;;;;5072259;28;20383;-74
2023/02/28 12:17:51;;;;;;;4.05;1.88;;;11.80;53.20;;;;;;5078329;28;20450;-74
2023/02/28 12:20:40;;;;;;;4.78;1.30;;;11.80;43.30;;;;;;5072626;28;20038;-75
2023/02/28 12:23:18;;;;;;;4.20;1.75;;;12.00;54.50;;;;;;5067796;28;20047;-75
2023/02/28 12:26:03;;;;;;;3.92;1.85;;;12.00;46.10;;;;;;5072870;28;20115;-75
2023/02/28 12:28:42;;;;;;;3.28;1.23;;;12.00;47.60;;;;;;5068129;28;20070;-75
2023/02/28 12:31:36;;;;;;;5.13;2.70;;;12.00;53.90;;;;;;5070555;28;20032;-75
2023/02/28 12:34:23;;;;;;;3.38;1.65;;;12.10;47.30;;;;;;5070559;28;20047;-74
2023/02/28 12:36:52;;;;;;;3.78;1.85;;;12.10;47.50;;;;;;5067668;28;20484;-73
2023/02/28 12:39:28;;;;;;;4.32;1.70;;;12.30;77.50;;;;;;5069796;28;20046;-74
2023/02/28 12:42:07;;;;;;;3.65;1.67;;;12.50;72.90;;;;;;5069235;28;20033;-74
2023/02/28 12:44:47;;;;;;;3.97;2.00;;;12.60;67.60;;;;;;5075859;28;20039;-75
2023/02/28 12:47:17;;;;;;;4.05;1.77;;;12.50;44.20;;;;;;5075799;28;20027;-74
2023/02/28 12:49:47;;;;;;;5.20;2.20;;;12.50;53.90;;;;;;5075812;28;20466;-75
2023/02/28 12:52:17;;;;;;;3.42;1.67;;;12.50;49.20;;;;;;5076560;28;20430;-75
2023/02/28 12:54:48;;;;;;;4.45;1.95;;;12.40;58.10;;;;;;5075641;28;20726;-75
2023/02/28 12:57:22;;;;;;;3.47;1.85;;;12.50;50.10;;;;;;5074792;28;20056;-75
2023/02/28 13:00:02;;;;;;;3.60;1.88;;;12.50;46.70;;;;;;5080120;28;20027;-73
2023/02/28 13:02:27;;;;;;;;;;;12.60;44.80;;;;;;5076496;28;20110;-74
2023/02/28 13:05:08;;;;;;;2.42;1.45;;;12.40;49.10;;;;;;5073072;28;19977;-74
2023/02/28 13:07:46;;;;;;;2.72;1.50;;;12.20;52.90;;;;;;5071845;28;20051;-74
2023/02/28 13:10:15;;;;;;;5.28;1.48;;;12.10;45.80;;;;;;5071984;28;20030;-75
2023/02/28 13:12:52;;;;;;;3.70;1.60;;;12.20;59.60;;;;;;5074253;28;20016;-74
2023/02/28 13:15:24;;;;;;;4.70;2.03;;;12.20;48.30;;;;;;5075447;28;20020;-74